Monday, September 01, 2014
18:49 UTC
  |  Log In   |  Register Free
Airport Search:

Tyler Pounds Regional Airport
(KTYR)

FAA data valid effective July 24, 2014 until September 18, 2014 (unless otherwise noted).

 
 
 
 
 
 
 
 
 
 
 
 
 
 

Current Aviation Weather for Tyler Pounds Regional Airport (KTYR)

The most recent METAR observation for KTYR was updated at: 1753 UTC
METAR Summary (Translated METAR)
KTYR
011753Z 19010KT 10SM BKN037 BKN047 32/21 A2997 RMK AO2 SLP141 T03170211 10317 20250 50001
KJDD
(23.8 nm NW from KTYR)
011815Z AUTO 18007KT 020V030 10SM SCT039 BKN048 32/22 A2997 RMK AO2
TAF Summary (Translated TAF)
KTYR
011737Z 0118/0218 19012G18KT P6SM BKN035 FM020100 17010KT P6SM FEW060 FM020800 17010KT P6SM BKN009 FM021500 19010KT P6SM BKN020
  Airport Weather Conditions for KTYR

 Current Weather at TYR
89° F
Mostly Cloudy
South winds at 11.5 mph
TYR NOAA Radar

Pressure: 29.97 in
Humidity: 53%
Wind: South at 11.5 MPH (10 KT)
Dew Point: 70.0°F
Visibility: 10.00 mi


Airport Weather Forecast for KTYR

Translated METAR and TAF for KTYR
Translated METAR for KTYR (1843 UTC 01 September 2014)
found at http://aviationweather.gov/adds/metars/
 
METAR text: KTYR 011753Z 19010KT 10SM BKN037 BKN047 32/21 A2997 RMK AO2 SLP141 T03170211 10317 20250 50001
Conditions at: KTYR (TYLER , TX, US) observed 1753 UTC 01 September 2014
Temperature: 31.7°C (89°F)
Dewpoint: 21.1°C (70°F) [RH = 54%]
Pressure (altimeter): 29.97 inches Hg (1015.0 mb)
[Sea-level pressure: 1014.1 mb]
Winds: from the S (190 degrees) at 12 MPH (10 knots; 5.2 m/s)
Visibility: 10 or more miles (16+ km)
Ceiling: 3700 feet AGL
Clouds: broken clouds at 3700 feet AGL
broken clouds at 4700 feet AGL
Weather: no significant weather observed at this time
Translated TAF for KTYR
Forecast for: KTYR (TYLER , TX, US)
TAF Text: KTYR 011737Z 0118/0218 19012G18KT P6SM BKN035
Forecast period: 1800 UTC 01 September 2014 to 0100 UTC 02 September 2014
Forecast type: FROM: standard forecast or significant change
Winds: from the S (190 degrees) at 14 MPH (12 knots; 6.2 m/s)
gusting to 21 MPH (18 knots; 9.4 m/s)
Visibility: 6 or more miles (10+ km)
Ceiling: 3500 feet AGL
Clouds: broken clouds at 3500 feet AGL
Weather: no significant weather forecast for this period
TAF Text: FM020100 17010KT P6SM FEW060
Forecast period: 0100 to 0800 UTC 02 September 2014
Forecast type: FROM: standard forecast or significant change
Winds: from the S (170 degrees) at 12 MPH (10 knots; 5.2 m/s)
Visibility: 6 or more miles (10+ km)
Clouds: few clouds at 6000 feet AGL
Weather: no significant weather forecast for this period
TAF Text: FM020800 17010KT P6SM BKN009
Forecast period: 0800 to 1500 UTC 02 September 2014
Forecast type: FROM: standard forecast or significant change
Winds: from the S (170 degrees) at 12 MPH (10 knots; 5.2 m/s)
Visibility: 6 or more miles (10+ km)
Ceiling: 900 feet AGL
Clouds: broken clouds at 900 feet AGL
Weather: no significant weather forecast for this period
TAF Text: FM021500 19010KT P6SM BKN020
Forecast period: 1500 to 1800 UTC 02 September 2014
Forecast type: FROM: standard forecast or significant change
Winds: from the S (190 degrees) at 12 MPH (10 knots; 5.2 m/s)
Visibility: 6 or more miles (10+ km)
Ceiling: 2000 feet AGL
Clouds: broken clouds at 2000 feet AGL
Weather: no significant weather forecast for this period

Find All Airport Services Find A Hotel Find A Rental Car Find A Golf Course Find A Restaurant $100 Hamburger



FBO's on the Field
FBO Company Facility Photos Services Transportation Aviation Fuel Prices: Prices include tax
Catering Weather Repair Courtesy Rental Type 100LL JetA JetA+ MOGAS 8087
 
Jet Center of Tyler

Currently rated 5 by 1 person
FS:Phillips66
Last Updated: Aug-26
Login to update fuel prices
SS:
Contact Jet Center of TylerMore FBO Information
 
Johnson Aviation, Inc

Currently rated 3.2 by 1 person
FS:Avfuel
Last Updated: Aug-28
Login to update fuel prices
SS:
Contact Johnson Aviation, IncMore FBO Information
 
Add another FBO Facility Photos Catering Weather Repair Courtesy Rental Type 100LL JetA JetA+ MOGAS 8087
Services Transportation Aviation Fuel Prices: Prices include tax


GlobalAir.com Airport Resource Center model-print
model-print
model-print
model-print